sensor_id;sensor_type;location;lat;lon;timestamp;temperature;humidity
68011;DHT22;54794;48.348;7.878;2023-01-15T00:01:30;14.40;63.50
68011;DHT22;54794;48.348;7.878;2023-01-15T00:04:17;14.60;63.50
68011;DHT22;54794;48.348;7.878;2023-01-15T00:07:01;14.60;63.50
68011;DHT22;54794;48.348;7.878;2023-01-15T00:09:38;14.60;63.50
68011;DHT22;54794;48.348;7.878;2023-01-15T00:12:15;14.80;63.60
68011;DHT22;54794;48.348;7.878;2023-01-15T00:14:50;14.60;63.50
68011;DHT22;54794;48.348;7.878;2023-01-15T00:17:43;14.60;63.70
68011;DHT22;54794;48.348;7.878;2023-01-15T00:20:13;14.70;63.80
68011;DHT22;54794;48.348;7.878;2023-01-15T00:23:15;14.60;63.70
68011;DHT22;54794;48.348;7.878;2023-01-15T00:26:04;14.70;63.70
68011;DHT22;54794;48.348;7.878;2023-01-15T00:29:00;14.60;63.70
68011;DHT22;54794;48.348;7.878;2023-01-15T00:31:36;14.60;63.70
68011;DHT22;54794;48.348;7.878;2023-01-15T00:34:14;14.60;63.70
68011;DHT22;54794;48.348;7.878;2023-01-15T00:37:00;14.60;63.70
68011;DHT22;54794;48.348;7.878;2023-01-15T00:39:34;14.60;63.70
68011;DHT22;54794;48.348;7.878;2023-01-15T00:42:13;14.60;63.60
68011;DHT22;54794;48.348;7.878;2023-01-15T00:44:55;14.60;63.70
68011;DHT22;54794;48.348;7.878;2023-01-15T00:47:46;14.60;63.80
68011;DHT22;54794;48.348;7.878;2023-01-15T00:50:41;14.70;63.80
68011;DHT22;54794;48.348;7.878;2023-01-15T00:53:27;14.70;63.70
68011;DHT22;54794;48.348;7.878;2023-01-15T00:56:03;14.70;63.70
68011;DHT22;54794;48.348;7.878;2023-01-15T00:58:42;14.70;63.70
68011;DHT22;54794;48.348;7.878;2023-01-15T01:01:23;14.60;63.70
68011;DHT22;54794;48.348;7.878;2023-01-15T01:03:52;14.70;63.80
68011;DHT22;54794;48.348;7.878;2023-01-15T01:06:30;14.70;63.80
68011;DHT22;54794;48.348;7.878;2023-01-15T01:09:04;14.70;64.30
68011;DHT22;54794;48.348;7.878;2023-01-15T01:11:42;14.70;63.90
68011;DHT22;54794;48.348;7.878;2023-01-15T01:14:27;14.70;63.80
68011;DHT22;54794;48.348;7.878;2023-01-15T01:17:06;14.80;63.80
68011;DHT22;54794;48.348;7.878;2023-01-15T01:19:45;14.70;63.80
68011;DHT22;54794;48.348;7.878;2023-01-15T01:22:26;14.70;63.80
68011;DHT22;54794;48.348;7.878;2023-01-15T01:25:04;14.70;63.80
68011;DHT22;54794;48.348;7.878;2023-01-15T01:27:49;14.70;63.90
68011;DHT22;54794;48.348;7.878;2023-01-15T01:30:21;14.70;63.80
68011;DHT22;54794;48.348;7.878;2023-01-15T01:32:56;14.80;63.90
68011;DHT22;54794;48.348;7.878;2023-01-15T01:35:47;14.80;64.00
68011;DHT22;54794;48.348;7.878;2023-01-15T01:38:24;14.70;64.00
68011;DHT22;54794;48.348;7.878;2023-01-15T01:40:57;14.80;63.90
68011;DHT22;54794;48.348;7.878;2023-01-15T01:46:39;14.90;64.10
68011;DHT22;54794;48.348;7.878;2023-01-15T01:49:27;14.90;64.00
68011;DHT22;54794;48.348;7.878;2023-01-15T01:52:16;14.80;64.00
68011;DHT22;54794;48.348;7.878;2023-01-15T01:54:57;14.90;64.20
68011;DHT22;54794;48.348;7.878;2023-01-15T01:57:30;14.90;64.10
68011;DHT22;54794;48.348;7.878;2023-01-15T02:00:12;14.90;64.10
68011;DHT22;54794;48.348;7.878;2023-01-15T02:02:56;14.90;64.10
68011;DHT22;54794;48.348;7.878;2023-01-15T02:05:55;14.90;64.20
68011;DHT22;54794;48.348;7.878;2023-01-15T02:08:31;14.90;64.20
68011;DHT22;54794;48.348;7.878;2023-01-15T02:14:42;15.00;64.30
68011;DHT22;54794;48.348;7.878;2023-01-15T02:17:39;15.00;64.20
68011;DHT22;54794;48.348;7.878;2023-01-15T02:24:09;15.00;64.00
68011;DHT22;54794;48.348;7.878;2023-01-15T02:30:24;15.10;64.10
68011;DHT22;54794;48.348;7.878;2023-01-15T02:33:27;15.10;64.00
68011;DHT22;54794;48.348;7.878;2023-01-15T02:36:14;15.10;64.10
68011;DHT22;54794;48.348;7.878;2023-01-15T02:39:17;15.10;64.10
68011;DHT22;54794;48.348;7.878;2023-01-15T02:42:01;15.10;64.10
68011;DHT22;54794;48.348;7.878;2023-01-15T02:44:48;15.20;64.20
68011;DHT22;54794;48.348;7.878;2023-01-15T02:47:32;15.10;64.10
68011;DHT22;54794;48.348;7.878;2023-01-15T02:50:15;15.10;64.00
68011;DHT22;54794;48.348;7.878;2023-01-15T02:52:56;15.10;64.00
68011;DHT22;54794;48.348;7.878;2023-01-15T02:55:51;15.20;64.00
68011;DHT22;54794;48.348;7.878;2023-01-15T02:58:54;15.10;64.30
68011;DHT22;54794;48.348;7.878;2023-01-15T03:01:46;15.20;64.00
68011;DHT22;54794;48.348;7.878;2023-01-15T03:08:13;15.20;64.00
68011;DHT22;54794;48.348;7.878;2023-01-15T03:11:05;15.20;63.90
68011;DHT22;54794;48.348;7.878;2023-01-15T03:13:46;15.30;64.00
68011;DHT22;54794;48.348;7.878;2023-01-15T03:19:44;15.20;63.90
68011;DHT22;54794;48.348;7.878;2023-01-15T03:22:32;15.20;63.90
68011;DHT22;54794;48.348;7.878;2023-01-15T03:25:22;15.30;63.90
68011;DHT22;54794;48.348;7.878;2023-01-15T03:28:14;15.30;64.00
68011;DHT22;54794;48.348;7.878;2023-01-15T03:31:04;15.70;64.20
68011;DHT22;54794;48.348;7.878;2023-01-15T03:33:39;15.30;64.00
68011;DHT22;54794;48.348;7.878;2023-01-15T03:36:33;15.30;64.00
68011;DHT22;54794;48.348;7.878;2023-01-15T03:39:10;15.20;63.90
68011;DHT22;54794;48.348;7.878;2023-01-15T03:42:28;15.20;64.00
68011;DHT22;54794;48.348;7.878;2023-01-15T03:45:29;15.30;64.20
68011;DHT22;54794;48.348;7.878;2023-01-15T03:48:36;15.30;64.10
68011;DHT22;54794;48.348;7.878;2023-01-15T03:51:31;15.20;64.00
68011;DHT22;54794;48.348;7.878;2023-01-15T03:57:28;15.20;64.10
68011;DHT22;54794;48.348;7.878;2023-01-15T04:00:41;15.20;64.10
68011;DHT22;54794;48.348;7.878;2023-01-15T04:03:29;15.30;64.20
68011;DHT22;54794;48.348;7.878;2023-01-15T04:06:11;15.30;64.10
68011;DHT22;54794;48.348;7.878;2023-01-15T04:08:48;15.20;64.10
68011;DHT22;54794;48.348;7.878;2023-01-15T04:11:26;15.20;64.20
68011;DHT22;54794;48.348;7.878;2023-01-15T04:13:57;15.20;64.20
68011;DHT22;54794;48.348;7.878;2023-01-15T04:16:37;15.50;64.40
68011;DHT22;54794;48.348;7.878;2023-01-15T04:19:09;15.20;64.30
68011;DHT22;54794;48.348;7.878;2023-01-15T04:21:41;15.20;64.10
68011;DHT22;54794;48.348;7.878;2023-01-15T04:24:27;15.20;64.20
68011;DHT22;54794;48.348;7.878;2023-01-15T04:27:07;15.20;64.20
68011;DHT22;54794;48.348;7.878;2023-01-15T04:29:40;15.20;64.10
68011;DHT22;54794;48.348;7.878;2023-01-15T04:32:15;15.30;64.20
68011;DHT22;54794;48.348;7.878;2023-01-15T04:34:51;15.30;64.30
68011;DHT22;54794;48.348;7.878;2023-01-15T04:37:37;15.20;64.20
68011;DHT22;54794;48.348;7.878;2023-01-15T04:40:22;15.20;64.20
68011;DHT22;54794;48.348;7.878;2023-01-15T04:43:15;15.10;64.10
68011;DHT22;54794;48.348;7.878;2023-01-15T04:46:09;15.20;64.10
68011;DHT22;54794;48.348;7.878;2023-01-15T04:48:46;15.20;64.20
68011;DHT22;54794;48.348;7.878;2023-01-15T04:51:20;15.20;64.30
68011;DHT22;54794;48.348;7.878;2023-01-15T04:53:56;15.20;64.30
68011;DHT22;54794;48.348;7.878;2023-01-15T04:56:29;15.10;64.30
68011;DHT22;54794;48.348;7.878;2023-01-15T04:59:08;15.20;64.30
68011;DHT22;54794;48.348;7.878;2023-01-15T05:01:38;15.20;64.30
68011;DHT22;54794;48.348;7.878;2023-01-15T05:04:32;15.20;64.30
68011;DHT22;54794;48.348;7.878;2023-01-15T05:07:25;15.20;64.40
68011;DHT22;54794;48.348;7.878;2023-01-15T05:09:58;15.20;64.30
68011;DHT22;54794;48.348;7.878;2023-01-15T05:12:38;15.10;64.30
68011;DHT22;54794;48.348;7.878;2023-01-15T05:15:33;15.10;64.10
68011;DHT22;54794;48.348;7.878;2023-01-15T05:18:17;15.10;63.70
68011;DHT22;54794;48.348;7.878;2023-01-15T05:20:53;15.00;63.30
68011;DHT22;54794;48.348;7.878;2023-01-15T05:23:28;14.90;63.10
68011;DHT22;54794;48.348;7.878;2023-01-15T05:26:09;14.70;62.80
68011;DHT22;54794;48.348;7.878;2023-01-15T05:28:53;14.50;62.80
68011;DHT22;54794;48.348;7.878;2023-01-15T05:31:30;14.40;62.80
68011;DHT22;54794;48.348;7.878;2023-01-15T05:34:05;14.20;62.80
68011;DHT22;54794;48.348;7.878;2023-01-15T05:37:05;14.00;63.00
68011;DHT22;54794;48.348;7.878;2023-01-15T05:39:43;13.90;63.20
68011;DHT22;54794;48.348;7.878;2023-01-15T05:42:18;13.80;63.20
68011;DHT22;54794;48.348;7.878;2023-01-15T05:44:54;13.60;63.30
68011;DHT22;54794;48.348;7.878;2023-01-15T05:47:34;13.50;63.30
68011;DHT22;54794;48.348;7.878;2023-01-15T05:50:07;13.30;63.40
68011;DHT22;54794;48.348;7.878;2023-01-15T05:52:37;13.20;63.40
68011;DHT22;54794;48.348;7.878;2023-01-15T05:55:08;13.20;63.60
68011;DHT22;54794;48.348;7.878;2023-01-15T05:57:45;13.10;63.80
68011;DHT22;54794;48.348;7.878;2023-01-15T06:00:19;13.00;63.90
68011;DHT22;54794;48.348;7.878;2023-01-15T06:02:58;12.90;64.10
68011;DHT22;54794;48.348;7.878;2023-01-15T06:05:36;12.80;64.20
68011;DHT22;54794;48.348;7.878;2023-01-15T06:08:08;12.80;64.20
68011;DHT22;54794;48.348;7.878;2023-01-15T06:10:38;12.40;64.10
68011;DHT22;54794;48.348;7.878;2023-01-15T06:13:16;12.70;64.40
68011;DHT22;54794;48.348;7.878;2023-01-15T06:15:48;12.60;64.50
68011;DHT22;54794;48.348;7.878;2023-01-15T06:18:23;12.60;64.70
68011;DHT22;54794;48.348;7.878;2023-01-15T06:21:04;12.50;64.60
68011;DHT22;54794;48.348;7.878;2023-01-15T06:23:38;12.30;64.80
68011;DHT22;54794;48.348;7.878;2023-01-15T06:26:23;12.60;64.90
68011;DHT22;54794;48.348;7.878;2023-01-15T06:28:57;12.40;64.90
68011;DHT22;54794;48.348;7.878;2023-01-15T06:31:42;12.40;65.40
68011;DHT22;54794;48.348;7.878;2023-01-15T06:34:21;12.40;64.80
68011;DHT22;54794;48.348;7.878;2023-01-15T06:36:50;12.40;64.80
68011;DHT22;54794;48.348;7.878;2023-01-15T06:39:22;12.40;65.30
68011;DHT22;54794;48.348;7.878;2023-01-15T06:41:55;12.30;64.90
68011;DHT22;54794;48.348;7.878;2023-01-15T06:44:43;12.30;64.90
68011;DHT22;54794;48.348;7.878;2023-01-15T06:47:42;12.30;65.00
68011;DHT22;54794;48.348;7.878;2023-01-15T06:50:13;12.20;64.90
68011;DHT22;54794;48.348;7.878;2023-01-15T06:52:58;12.20;65.00
68011;DHT22;54794;48.348;7.878;2023-01-15T06:55:32;12.20;65.20
68011;DHT22;54794;48.348;7.878;2023-01-15T06:58:07;12.20;65.20
68011;DHT22;54794;48.348;7.878;2023-01-15T07:00:42;12.10;65.20
68011;DHT22;54794;48.348;7.878;2023-01-15T07:03:13;12.20;65.30
68011;DHT22;54794;48.348;7.878;2023-01-15T07:05:41;12.10;65.10
68011;DHT22;54794;48.348;7.878;2023-01-15T07:08:14;12.10;65.70
68011;DHT22;54794;48.348;7.878;2023-01-15T07:10:44;12.10;65.30
68011;DHT22;54794;48.348;7.878;2023-01-15T07:13:13;12.10;65.30
68011;DHT22;54794;48.348;7.878;2023-01-15T07:15:43;12.10;65.30
68011;DHT22;54794;48.348;7.878;2023-01-15T07:18:18;12.00;65.30
68011;DHT22;54794;48.348;7.878;2023-01-15T07:20:49;12.00;65.30
68011;DHT22;54794;48.348;7.878;2023-01-15T07:23:28;12.00;65.40
68011;DHT22;54794;48.348;7.878;2023-01-15T07:26:03;12.00;65.40
68011;DHT22;54794;48.348;7.878;2023-01-15T07:28:35;12.00;65.50
68011;DHT22;54794;48.348;7.878;2023-01-15T07:31:08;11.90;65.60
68011;DHT22;54794;48.348;7.878;2023-01-15T07:33:35;11.90;65.50
68011;DHT22;54794;48.348;7.878;2023-01-15T07:36:15;11.90;65.50
68011;DHT22;54794;48.348;7.878;2023-01-15T07:38:51;11.90;65.80
68011;DHT22;54794;48.348;7.878;2023-01-15T07:41:23;11.90;65.60
68011;DHT22;54794;48.348;7.878;2023-01-15T07:44:10;11.90;65.60
68011;DHT22;54794;48.348;7.878;2023-01-15T07:46:56;11.90;65.60
68011;DHT22;54794;48.348;7.878;2023-01-15T07:50:10;11.90;65.60
68011;DHT22;54794;48.348;7.878;2023-01-15T07:52:44;11.90;65.60
68011;DHT22;54794;48.348;7.878;2023-01-15T07:55:17;11.90;65.50
68011;DHT22;54794;48.348;7.878;2023-01-15T07:57:50;11.90;65.50
68011;DHT22;54794;48.348;7.878;2023-01-15T08:00:25;11.90;65.50
68011;DHT22;54794;48.348;7.878;2023-01-15T08:03:00;12.00;65.50
68011;DHT22;54794;48.348;7.878;2023-01-15T08:05:34;11.90;65.60
68011;DHT22;54794;48.348;7.878;2023-01-15T08:08:16;11.70;65.50
68011;DHT22;54794;48.348;7.878;2023-01-15T08:11:02;11.90;65.90
68011;DHT22;54794;48.348;7.878;2023-01-15T08:14:16;11.80;65.80
68011;DHT22;54794;48.348;7.878;2023-01-15T08:17:07;11.80;65.30
68011;DHT22;54794;48.348;7.878;2023-01-15T08:19:42;11.80;65.00
68011;DHT22;54794;48.348;7.878;2023-01-15T08:22:17;11.70;64.90
68011;DHT22;54794;48.348;7.878;2023-01-15T08:24:54;11.70;64.80
68011;DHT22;54794;48.348;7.878;2023-01-15T08:27:29;11.50;64.50
68011;DHT22;54794;48.348;7.878;2023-01-15T08:30:11;11.60;64.70
68011;DHT22;54794;48.348;7.878;2023-01-15T08:33:08;11.50;64.30
68011;DHT22;54794;48.348;7.878;2023-01-15T08:35:38;11.40;64.50
68011;DHT22;54794;48.348;7.878;2023-01-15T08:38:11;11.30;64.60
68011;DHT22;54794;48.348;7.878;2023-01-15T08:40:52;11.30;64.70
68011;DHT22;54794;48.348;7.878;2023-01-15T08:43:26;11.20;64.90
68011;DHT22;54794;48.348;7.878;2023-01-15T08:46:02;11.20;65.00
68011;DHT22;54794;48.348;7.878;2023-01-15T08:48:41;11.10;65.00
68011;DHT22;54794;48.348;7.878;2023-01-15T08:51:25;11.10;65.40
68011;DHT22;54794;48.348;7.878;2023-01-15T08:54:08;11.10;64.80
68011;DHT22;54794;48.348;7.878;2023-01-15T08:56:38;11.00;64.70
68011;DHT22;54794;48.348;7.878;2023-01-15T08:59:10;11.00;64.70
68011;DHT22;54794;48.348;7.878;2023-01-15T09:01:50;11.00;64.70
68011;DHT22;54794;48.348;7.878;2023-01-15T09:04:30;10.90;64.70
68011;DHT22;54794;48.348;7.878;2023-01-15T09:07:15;10.90;64.70
68011;DHT22;54794;48.348;7.878;2023-01-15T09:14:08;10.80;64.80
68011;DHT22;54794;48.348;7.878;2023-01-15T09:17:05;10.70;64.80
68011;DHT22;54794;48.348;7.878;2023-01-15T09:19:57;10.70;64.90
68011;DHT22;54794;48.348;7.878;2023-01-15T09:22:33;10.70;64.90
68011;DHT22;54794;48.348;7.878;2023-01-15T09:25:10;10.70;64.90
68011;DHT22;54794;48.348;7.878;2023-01-15T09:28:01;10.60;64.80
68011;DHT22;54794;48.348;7.878;2023-01-15T09:30:38;10.60;64.80
68011;DHT22;54794;48.348;7.878;2023-01-15T09:33:29;10.50;64.70
68011;DHT22;54794;48.348;7.878;2023-01-15T09:35:58;10.50;64.40
68011;DHT22;54794;48.348;7.878;2023-01-15T09:38:30;10.40;64.40
68011;DHT22;54794;48.348;7.878;2023-01-15T09:41:16;10.40;64.50
68011;DHT22;54794;48.348;7.878;2023-01-15T09:51:15;10.20;64.40
68011;DHT22;54794;48.348;7.878;2023-01-15T09:56:36;10.10;64.70
68011;DHT22;54794;48.348;7.878;2023-01-15T10:02:33;9.90;64.90
68011;DHT22;54794;48.348;7.878;2023-01-15T10:05:18;9.90;64.90
68011;DHT22;54794;48.348;7.878;2023-01-15T10:08:23;9.90;64.90
68011;DHT22;54794;48.348;7.878;2023-01-15T10:14:47;9.90;64.80
68011;DHT22;54794;48.348;7.878;2023-01-15T10:17:49;9.80;64.90
68011;DHT22;54794;48.348;7.878;2023-01-15T10:20:57;9.80;64.70
68011;DHT22;54794;48.348;7.878;2023-01-15T10:27:32;9.70;65.00
68011;DHT22;54794;48.348;7.878;2023-01-15T10:30:29;9.70;65.00
68011;DHT22;54794;48.348;7.878;2023-01-15T10:47:37;9.50;65.30
68011;DHT22;54794;48.348;7.878;2023-01-15T10:50:37;9.50;65.40
68011;DHT22;54794;48.348;7.878;2023-01-15T10:53:37;9.40;65.40
68011;DHT22;54794;48.348;7.878;2023-01-15T10:56:56;9.50;65.40
68011;DHT22;54794;48.348;7.878;2023-01-15T11:00:10;9.40;65.30
68011;DHT22;54794;48.348;7.878;2023-01-15T11:06:23;9.40;65.40
68011;DHT22;54794;48.348;7.878;2023-01-15T11:09:34;9.30;65.30
68011;DHT22;54794;48.348;7.878;2023-01-15T11:12:48;9.30;65.30
68011;DHT22;54794;48.348;7.878;2023-01-15T11:15:40;9.30;65.30
68011;DHT22;54794;48.348;7.878;2023-01-15T11:19:09;9.20;65.10
68011;DHT22;54794;48.348;7.878;2023-01-15T11:22:28;9.10;65.20
68011;DHT22;54794;48.348;7.878;2023-01-15T11:25:23;9.30;65.20
68011;DHT22;54794;48.348;7.878;2023-01-15T11:31:43;9.00;65.00
68011;DHT22;54794;48.348;7.878;2023-01-15T11:34:30;9.00;65.20
68011;DHT22;54794;48.348;7.878;2023-01-15T11:37:19;8.90;65.10
68011;DHT22;54794;48.348;7.878;2023-01-15T11:39:56;9.00;65.20
68011;DHT22;54794;48.348;7.878;2023-01-15T11:42:37;9.00;65.30
68011;DHT22;54794;48.348;7.878;2023-01-15T11:45:51;9.00;65.30
68011;DHT22;54794;48.348;7.878;2023-01-15T11:48:44;9.00;65.20
68011;DHT22;54794;48.348;7.878;2023-01-15T11:51:42;9.00;65.20
68011;DHT22;54794;48.348;7.878;2023-01-15T11:54:42;9.00;65.30
68011;DHT22;54794;48.348;7.878;2023-01-15T11:57:55;9.00;65.40
68011;DHT22;54794;48.348;7.878;2023-01-15T12:00:48;9.10;65.50
68011;DHT22;54794;48.348;7.878;2023-01-15T12:03:33;9.40;65.70
68011;DHT22;54794;48.348;7.878;2023-01-15T12:33:18;9.40;65.80
68011;DHT22;54794;48.348;7.878;2023-01-15T12:39:46;9.50;65.60
68011;DHT22;54794;48.348;7.878;2023-01-15T12:42:22;9.50;65.70
68011;DHT22;54794;48.348;7.878;2023-01-15T12:45:51;9.50;65.60
68011;DHT22;54794;48.348;7.878;2023-01-15T12:52:27;9.60;65.80
68011;DHT22;54794;48.348;7.878;2023-01-15T13:04:09;9.80;65.90
68011;DHT22;54794;48.348;7.878;2023-01-15T13:15:23;10.00;66.10
68011;DHT22;54794;48.348;7.878;2023-01-15T13:22:48;10.10;66.10
68011;DHT22;54794;48.348;7.878;2023-01-15T13:38:36;10.30;65.50
68011;DHT22;54794;48.348;7.878;2023-01-15T13:53:53;10.30;65.30
68011;DHT22;54794;48.348;7.878;2023-01-15T14:06:49;10.60;65.60
68011;DHT22;54794;48.348;7.878;2023-01-15T14:29:33;11.10;64.80
68011;DHT22;54794;48.348;7.878;2023-01-15T14:35:24;11.10;64.70
68011;DHT22;54794;48.348;7.878;2023-01-15T14:38:07;11.10;64.40
68011;DHT22;54794;48.348;7.878;2023-01-15T14:41:09;11.10;64.40
68011;DHT22;54794;48.348;7.878;2023-01-15T14:43:50;11.10;64.50
68011;DHT22;54794;48.348;7.878;2023-01-15T14:46:32;11.20;64.70
68011;DHT22;54794;48.348;7.878;2023-01-15T14:49:30;11.10;64.40
68011;DHT22;54794;48.348;7.878;2023-01-15T14:52:27;11.10;64.20
68011;DHT22;54794;48.348;7.878;2023-01-15T14:54:58;11.10;64.20
68011;DHT22;54794;48.348;7.878;2023-01-15T14:57:47;11.10;64.20
68011;DHT22;54794;48.348;7.878;2023-01-15T15:00:49;11.00;64.10
68011;DHT22;54794;48.348;7.878;2023-01-15T15:03:36;11.00;64.00
68011;DHT22;54794;48.348;7.878;2023-01-15T15:06:24;10.90;63.90
68011;DHT22;54794;48.348;7.878;2023-01-15T15:09:01;10.90;63.90
68011;DHT22;54794;48.348;7.878;2023-01-15T15:11:45;10.90;63.70
68011;DHT22;54794;48.348;7.878;2023-01-15T15:14:37;10.70;63.60
68011;DHT22;54794;48.348;7.878;2023-01-15T15:17:24;10.80;63.70
68011;DHT22;54794;48.348;7.878;2023-01-15T15:27:20;10.60;63.70
68011;DHT22;54794;48.348;7.878;2023-01-15T15:30:09;10.50;63.80
68011;DHT22;54794;48.348;7.878;2023-01-15T15:32:43;10.50;63.80
68011;DHT22;54794;48.348;7.878;2023-01-15T15:35:35;10.40;63.60
68011;DHT22;54794;48.348;7.878;2023-01-15T15:38:18;10.30;63.60
68011;DHT22;54794;48.348;7.878;2023-01-15T15:40:55;10.30;63.20
68011;DHT22;54794;48.348;7.878;2023-01-15T15:43:49;10.30;63.60
68011;DHT22;54794;48.348;7.878;2023-01-15T15:46:53;10.30;64.10
68011;DHT22;54794;48.348;7.878;2023-01-15T15:49:46;10.20;63.60
68011;DHT22;54794;48.348;7.878;2023-01-15T15:52:21;10.20;63.70
68011;DHT22;54794;48.348;7.878;2023-01-15T15:55:00;10.10;63.60
68011;DHT22;54794;48.348;7.878;2023-01-15T15:57:33;10.10;63.60
68011;DHT22;54794;48.348;7.878;2023-01-15T16:00:01;10.10;63.60
68011;DHT22;54794;48.348;7.878;2023-01-15T16:02:57;10.00;63.50
68011;DHT22;54794;48.348;7.878;2023-01-15T16:05:41;10.40;63.80
68011;DHT22;54794;48.348;7.878;2023-01-15T16:08:32;9.90;63.50
68011;DHT22;54794;48.348;7.878;2023-01-15T16:11:11;9.90;63.50
68011;DHT22;54794;48.348;7.878;2023-01-15T16:13:54;9.80;63.40
68011;DHT22;54794;48.348;7.878;2023-01-15T16:16:29;9.80;63.50
68011;DHT22;54794;48.348;7.878;2023-01-15T16:19:04;9.70;63.60
68011;DHT22;54794;48.348;7.878;2023-01-15T16:21:39;9.70;63.60
68011;DHT22;54794;48.348;7.878;2023-01-15T16:24:26;9.70;63.70
68011;DHT22;54794;48.348;7.878;2023-01-15T16:27:05;9.60;63.70
68011;DHT22;54794;48.348;7.878;2023-01-15T16:29:48;9.90;63.90
68011;DHT22;54794;48.348;7.878;2023-01-15T16:32:27;9.60;63.80
68011;DHT22;54794;48.348;7.878;2023-01-15T16:35:06;9.60;63.60
68011;DHT22;54794;48.348;7.878;2023-01-15T16:38:14;9.50;63.60
68011;DHT22;54794;48.348;7.878;2023-01-15T16:40:49;9.50;63.60
68011;DHT22;54794;48.348;7.878;2023-01-15T16:43:27;9.50;63.70
68011;DHT22;54794;48.348;7.878;2023-01-15T16:46:30;9.40;63.80
68011;DHT22;54794;48.348;7.878;2023-01-15T16:49:29;9.40;63.80
68011;DHT22;54794;48.348;7.878;2023-01-15T16:52:56;9.40;63.70
68011;DHT22;54794;48.348;7.878;2023-01-15T16:55:49;9.40;63.70
68011;DHT22;54794;48.348;7.878;2023-01-15T17:05:17;9.30;63.70
68011;DHT22;54794;48.348;7.878;2023-01-15T17:08:14;9.20;63.70
68011;DHT22;54794;48.348;7.878;2023-01-15T17:11:19;9.10;63.80
68011;DHT22;54794;48.348;7.878;2023-01-15T17:14:30;9.40;64.00
68011;DHT22;54794;48.348;7.878;2023-01-15T17:17:24;9.20;63.80
68011;DHT22;54794;48.348;7.878;2023-01-15T17:20:23;9.20;63.80
68011;DHT22;54794;48.348;7.878;2023-01-15T17:23:30;9.10;63.90
68011;DHT22;54794;48.348;7.878;2023-01-15T17:29:46;9.10;63.70
68011;DHT22;54794;48.348;7.878;2023-01-15T17:39:43;9.30;63.70
68011;DHT22;54794;48.348;7.878;2023-01-15T17:43:12;9.10;63.70
68011;DHT22;54794;48.348;7.878;2023-01-15T17:46:38;9.20;63.50
68011;DHT22;54794;48.348;7.878;2023-01-15T17:53:16;9.00;63.40
68011;DHT22;54794;48.348;7.878;2023-01-15T18:03:34;9.10;63.30
68011;DHT22;54794;48.348;7.878;2023-01-15T18:06:36;9.20;63.30
68011;DHT22;54794;48.348;7.878;2023-01-15T18:13:14;8.90;63.00
68011;DHT22;54794;48.348;7.878;2023-01-15T18:16:28;9.10;63.20
68011;DHT22;54794;48.348;7.878;2023-01-15T18:19:52;9.10;62.80
68011;DHT22;54794;48.348;7.878;2023-01-15T18:23:33;9.10;62.90
68011;DHT22;54794;48.348;7.878;2023-01-15T18:26:51;9.10;62.70
68011;DHT22;54794;48.348;7.878;2023-01-15T18:29:31;9.00;62.70
68011;DHT22;54794;48.348;7.878;2023-01-15T18:32:13;9.00;62.80
68011;DHT22;54794;48.348;7.878;2023-01-15T18:35:03;8.90;62.70
68011;DHT22;54794;48.348;7.878;2023-01-15T18:37:48;8.90;62.80
68011;DHT22;54794;48.348;7.878;2023-01-15T18:40:37;8.80;62.90
68011;DHT22;54794;48.348;7.878;2023-01-15T18:43:23;8.80;62.70
68011;DHT22;54794;48.348;7.878;2023-01-15T18:46:19;8.80;62.80
68011;DHT22;54794;48.348;7.878;2023-01-15T18:49:29;8.80;62.90
68011;DHT22;54794;48.348;7.878;2023-01-15T18:52:04;8.70;62.70
68011;DHT22;54794;48.348;7.878;2023-01-15T18:54:58;8.70;62.80
68011;DHT22;54794;48.348;7.878;2023-01-15T18:57:41;8.70;62.90
68011;DHT22;54794;48.348;7.878;2023-01-15T19:00:33;8.70;62.80
68011;DHT22;54794;48.348;7.878;2023-01-15T19:03:22;8.60;62.70
68011;DHT22;54794;48.348;7.878;2023-01-15T19:06:06;8.60;62.80
68011;DHT22;54794;48.348;7.878;2023-01-15T19:08:43;8.60;62.60
68011;DHT22;54794;48.348;7.878;2023-01-15T19:11:24;8.60;62.80
68011;DHT22;54794;48.348;7.878;2023-01-15T19:14:32;8.60;62.60
68011;DHT22;54794;48.348;7.878;2023-01-15T19:17:31;8.70;62.50
68011;DHT22;54794;48.348;7.878;2023-01-15T19:20:32;8.50;62.50
68011;DHT22;54794;48.348;7.878;2023-01-15T19:23:07;8.50;62.50
68011;DHT22;54794;48.348;7.878;2023-01-15T19:29:48;8.50;62.30
68011;DHT22;54794;48.348;7.878;2023-01-15T19:32:41;8.50;62.50
68011;DHT22;54794;48.348;7.878;2023-01-15T19:35:23;8.50;62.50
68011;DHT22;54794;48.348;7.878;2023-01-15T19:38:16;8.60;62.50
68011;DHT22;54794;48.348;7.878;2023-01-15T19:40:58;8.50;62.50
68011;DHT22;54794;48.348;7.878;2023-01-15T19:44:02;8.40;62.60
68011;DHT22;54794;48.348;7.878;2023-01-15T19:46:58;8.40;62.50
68011;DHT22;54794;48.348;7.878;2023-01-15T19:49:48;8.40;62.50
68011;DHT22;54794;48.348;7.878;2023-01-15T19:52:42;8.50;62.50
68011;DHT22;54794;48.348;7.878;2023-01-15T19:55:26;8.40;62.20
68011;DHT22;54794;48.348;7.878;2023-01-15T19:58:06;8.40;62.40
68011;DHT22;54794;48.348;7.878;2023-01-15T20:04:12;8.40;62.30
68011;DHT22;54794;48.348;7.878;2023-01-15T20:07:11;8.40;62.20
68011;DHT22;54794;48.348;7.878;2023-01-15T20:09:48;8.40;62.10
68011;DHT22;54794;48.348;7.878;2023-01-15T20:12:40;8.40;62.40
68011;DHT22;54794;48.348;7.878;2023-01-15T20:16:18;8.50;62.30
68011;DHT22;54794;48.348;7.878;2023-01-15T20:19:11;8.60;62.10
68011;DHT22;54794;48.348;7.878;2023-01-15T20:21:59;8.50;62.10
68011;DHT22;54794;48.348;7.878;2023-01-15T20:25:02;8.30;61.90
68011;DHT22;54794;48.348;7.878;2023-01-15T20:27:42;8.40;61.90
68011;DHT22;54794;48.348;7.878;2023-01-15T20:30:20;8.30;62.20
68011;DHT22;54794;48.348;7.878;2023-01-15T20:33:04;8.20;62.20
68011;DHT22;54794;48.348;7.878;2023-01-15T20:35:41;8.30;62.20
68011;DHT22;54794;48.348;7.878;2023-01-15T20:38:37;8.40;62.20
68011;DHT22;54794;48.348;7.878;2023-01-15T20:41:25;8.30;62.10
68011;DHT22;54794;48.348;7.878;2023-01-15T20:47:42;8.50;62.10
68011;DHT22;54794;48.348;7.878;2023-01-15T20:50:48;7.80;61.70
68011;DHT22;54794;48.348;7.878;2023-01-15T20:53:58;8.80;62.30
68011;DHT22;54794;48.348;7.878;2023-01-15T20:56:58;8.40;61.80
68011;DHT22;54794;48.348;7.878;2023-01-15T21:20:40;8.40;61.40
68011;DHT22;54794;48.348;7.878;2023-01-15T21:23:33;8.40;61.30
68011;DHT22;54794;48.348;7.878;2023-01-15T21:26:19;8.40;61.80
68011;DHT22;54794;48.348;7.878;2023-01-15T21:29:07;8.40;61.70
68011;DHT22;54794;48.348;7.878;2023-01-15T21:31:55;8.40;61.80
68011;DHT22;54794;48.348;7.878;2023-01-15T21:34:39;8.40;61.80
68011;DHT22;54794;48.348;7.878;2023-01-15T21:37:21;8.20;61.30
68011;DHT22;54794;48.348;7.878;2023-01-15T21:42:56;8.90;62.00
68011;DHT22;54794;48.348;7.878;2023-01-15T21:46:01;8.70;61.60
68011;DHT22;54794;48.348;7.878;2023-01-15T21:48:50;8.50;61.40
68011;DHT22;54794;48.348;7.878;2023-01-15T21:51:31;8.50;61.40
68011;DHT22;54794;48.348;7.878;2023-01-15T21:54:03;8.50;61.20
68011;DHT22;54794;48.348;7.878;2023-01-15T21:56:46;8.50;61.30